createdAt,value
2023-04-25T05:31:18.632Z,4.65
2023-04-25T05:33:46.172Z,5.28
2023-04-25T05:36:13.612Z,4.20
2023-04-25T05:38:41.099Z,4.85
2023-04-25T05:41:08.648Z,5.07
2023-04-25T05:43:36.694Z,4.50
2023-04-25T05:46:04.259Z,4.60
2023-04-25T05:48:31.940Z,4.75
2023-04-25T05:50:59.534Z,4.05
2023-04-25T05:53:27.561Z,3.95
2023-04-25T05:55:55.448Z,4.43
2023-04-25T05:58:23.399Z,3.85
2023-04-25T06:00:52.728Z,3.75
2023-04-25T06:03:27.530Z,3.45
2023-04-25T06:05:57.721Z,4.03
2023-04-25T06:08:25.622Z,4.40
2023-04-25T06:10:53.353Z,3.50
2023-04-25T06:13:21.157Z,4.55
2023-04-25T06:15:51.205Z,3.97
2023-04-25T06:18:18.640Z,3.83
2023-04-25T06:20:46.934Z,4.18
2023-04-25T06:23:14.566Z,3.80
2023-04-25T06:25:43.092Z,4.50
2023-04-25T06:28:11.614Z,4.07
2023-04-25T06:30:40.036Z,5.07
2023-04-25T06:33:11.674Z,4.53
2023-04-25T06:35:39.910Z,4.30
2023-04-25T06:38:08.246Z,4.90
2023-04-25T06:40:36.383Z,5.40
2023-04-25T06:43:04.767Z,4.80
2023-04-25T06:45:32.121Z,4.65
2023-04-25T06:48:00.008Z,5.03
2023-04-25T06:50:28.352Z,5.35
2023-04-25T06:52:56.002Z,5.25
2023-04-25T06:55:23.732Z,4.40
2023-04-25T06:57:51.761Z,4.38
2023-04-25T07:00:19.909Z,4.57
2023-04-25T07:02:47.874Z,4.82
2023-04-25T07:05:17.483Z,4.70
2023-04-25T07:07:58.466Z,4.60
2023-04-25T07:10:27.188Z,4.38
2023-04-25T07:13:18.602Z,4.05
2023-04-25T07:15:46.964Z,5.13
2023-04-25T07:18:17.786Z,4.65
2023-04-25T07:20:45.896Z,4.18
2023-04-25T07:23:15.243Z,5.07
2023-04-25T07:25:45.651Z,5.25
2023-04-25T07:28:13.478Z,5.53
2023-04-25T07:30:41.284Z,7.13
2023-04-25T07:33:09.149Z,5.78
2023-04-25T07:35:36.824Z,5.82
2023-04-25T07:38:06.311Z,7.25
2023-04-25T07:40:35.148Z,5.30
2023-04-25T07:46:14.940Z,6.20
2023-04-25T07:48:42.772Z,5.38
2023-04-25T07:51:13.846Z,4.72
2023-04-25T07:53:42.123Z,5.40
2023-04-25T07:56:17.756Z,4.85
2023-04-25T07:58:47.139Z,4.60
2023-04-25T08:01:15.307Z,4.25
2023-04-25T08:03:43.879Z,4.25
2023-04-25T08:06:12.165Z,4.45
2023-04-25T08:08:41.169Z,3.85
2023-04-25T08:11:08.868Z,4.00
2023-04-25T08:13:39.217Z,4.40
2023-04-25T08:16:07.278Z,4.18
2023-04-25T08:18:36.005Z,4.97
2023-04-25T08:21:08.294Z,4.40
2023-04-25T08:23:37.283Z,4.53
2023-04-25T08:26:07.324Z,4.90
2023-04-25T08:28:37.244Z,5.38
2023-04-25T08:31:07.293Z,5.30
2023-04-25T08:33:39.977Z,4.60
2023-04-25T08:36:11.386Z,4.85
2023-04-25T08:38:44.152Z,5.25
2023-04-25T08:43:47.545Z,4.53
2023-04-25T08:46:19.501Z,4.32
2023-04-25T08:48:48.228Z,4.43
2023-04-25T08:51:32.316Z,4.00
2023-04-25T08:54:28.067Z,4.07
2023-04-25T08:57:03.272Z,4.07
2023-04-25T08:59:31.840Z,3.67
2023-04-25T09:01:59.886Z,3.58
2023-04-25T09:04:28.137Z,4.32
2023-04-25T09:06:58.269Z,3.47
2023-04-25T09:09:32.952Z,3.53
2023-04-25T09:12:01.292Z,3.38
2023-04-25T09:14:29.380Z,5.05
2023-04-25T09:16:57.015Z,4.00
2023-04-25T09:19:41.159Z,5.50
2023-04-25T09:22:09.868Z,5.35
2023-04-25T09:24:47.389Z,9.15
2023-04-25T09:27:21.891Z,6.35
2023-04-25T09:29:50.084Z,7.05
2023-04-25T09:32:24.536Z,4.35
2023-04-25T09:34:55.210Z,2.92
2023-04-25T09:37:25.028Z,3.45
2023-04-25T09:40:00.708Z,2.83
2023-04-25T09:42:30.190Z,2.33
2023-04-25T09:44:58.599Z,2.78
2023-04-25T09:47:31.179Z,2.40
2023-04-25T09:50:00.352Z,2.10
2023-04-25T09:52:28.707Z,1.60
2023-04-25T09:54:58.038Z,2.30
2023-04-25T09:57:26.593Z,2.00
2023-04-25T09:59:57.806Z,2.13
2023-04-25T10:02:28.370Z,2.20
2023-04-25T10:04:57.626Z,1.70
2023-04-25T10:07:30.723Z,2.40
2023-04-25T10:12:35.120Z,2.97
2023-04-25T10:15:04.285Z,2.78
2023-04-25T10:17:33.497Z,3.17
2023-04-25T10:20:06.062Z,3.75
2023-04-25T10:22:43.318Z,4.68
2023-04-25T10:25:12.316Z,4.65
2023-04-25T10:27:41.168Z,4.75
2023-04-25T10:30:15.532Z,4.82
2023-04-25T10:32:43.884Z,4.68
2023-04-25T10:35:28.875Z,4.90
2023-04-25T10:38:08.094Z,5.80
2023-04-25T10:40:35.949Z,6.30
2023-04-25T10:43:41.631Z,7.85
2023-04-25T10:46:30.122Z,5.82
2023-04-25T10:49:02.451Z,6.40
2023-04-25T10:51:43.393Z,4.95
2023-04-25T10:54:21.278Z,4.40
2023-04-25T10:56:50.653Z,5.97
2023-04-25T10:59:19.755Z,6.20
2023-04-25T11:01:58.827Z,6.18
2023-04-25T11:04:27.133Z,7.00
2023-04-25T11:07:08.792Z,9.02
2023-04-25T11:09:38.940Z,10.82
2023-04-25T11:12:09.438Z,8.50
2023-04-25T11:14:37.448Z,8.27
2023-04-25T11:17:05.283Z,6.25
2023-04-25T11:19:33.096Z,6.03
2023-04-25T11:22:02.500Z,7.43
2023-04-25T11:24:37.880Z,6.22
2023-04-25T11:27:07.105Z,5.75
2023-04-25T11:29:36.114Z,5.40
2023-04-25T11:32:04.417Z,5.55
2023-04-25T11:34:34.017Z,5.20
2023-04-25T11:37:03.119Z,7.15
2023-04-25T11:39:31.349Z,7.40
2023-04-25T11:41:59.853Z,6.68
2023-04-25T11:44:28.293Z,6.03
2023-04-25T11:46:56.591Z,4.05
2023-04-25T11:49:26.008Z,3.97
2023-04-25T11:51:57.159Z,4.20
2023-04-25T11:54:25.237Z,3.42
2023-04-25T11:56:53.476Z,3.58
2023-04-25T11:59:26.529Z,2.88
2023-04-25T12:01:55.561Z,2.65
2023-04-25T12:04:24.865Z,2.13
2023-04-25T12:06:57.191Z,1.40
2023-04-25T12:09:34.938Z,1.88
2023-04-25T12:12:04.590Z,2.00
2023-04-25T12:14:33.971Z,1.83
2023-04-25T12:17:03.493Z,2.00
2023-04-25T12:19:41.801Z,2.53
2023-04-25T12:22:25.897Z,3.00
2023-04-25T12:24:55.026Z,2.75
2023-04-25T12:27:22.650Z,4.07
2023-04-25T12:29:57.348Z,4.10
2023-04-25T12:32:25.216Z,3.60
2023-04-25T12:34:52.810Z,4.55
2023-04-25T12:37:20.056Z,3.83
2023-04-25T12:39:47.905Z,4.32
2023-04-25T12:42:15.122Z,4.10
2023-04-25T12:44:42.714Z,4.55
2023-04-25T12:47:10.621Z,4.63
2023-04-25T12:49:38.305Z,4.78
2023-04-25T12:52:05.946Z,5.13
2023-04-25T12:54:33.594Z,5.88
2023-04-25T12:57:02.525Z,5.72
2023-04-25T12:59:29.715Z,4.70
2023-04-25T13:01:57.398Z,4.70
2023-04-25T13:04:25.330Z,5.28
2023-04-25T13:06:52.976Z,4.97
2023-04-25T13:09:21.552Z,6.03
2023-04-25T13:11:49.145Z,6.18
2023-04-25T13:14:16.650Z,6.30
2023-04-25T13:16:44.234Z,5.63
2023-04-25T13:19:12.598Z,4.90
2023-04-25T13:21:40.953Z,4.03
2023-04-25T13:24:08.616Z,5.40
2023-04-25T13:26:36.647Z,4.88
2023-04-25T13:29:04.713Z,4.72
2023-04-25T13:31:32.688Z,4.68
2023-04-25T13:34:00.540Z,4.22
2023-04-25T13:36:29.026Z,5.15
2023-04-25T13:38:56.569Z,3.63
2023-04-25T13:41:24.518Z,4.07
2023-04-25T13:43:53.187Z,3.58
2023-04-25T13:46:41.024Z,4.05
2023-04-25T13:49:12.924Z,3.88
2023-04-25T13:51:43.215Z,3.72
2023-04-25T13:54:11.046Z,3.85
2023-04-25T13:56:38.265Z,3.22
2023-04-25T13:59:05.549Z,3.45
2023-04-25T14:01:35.389Z,3.40
2023-04-25T14:04:04.996Z,3.80
2023-04-25T14:06:33.155Z,3.95
2023-04-25T14:09:02.093Z,3.88
2023-04-25T14:11:29.850Z,3.08
2023-04-25T14:13:57.405Z,3.80
2023-04-25T14:16:24.893Z,3.38
2023-04-25T14:18:52.634Z,3.38
2023-04-25T14:21:19.700Z,3.50
2023-04-25T14:23:47.807Z,3.05
2023-04-25T14:26:15.579Z,3.75
2023-04-25T14:28:43.177Z,4.10
2023-04-25T14:31:10.905Z,3.50
2023-04-25T14:33:40.588Z,4.53
2023-04-25T14:36:08.327Z,3.13
2023-04-25T14:38:35.478Z,2.67
2023-04-25T14:41:03.121Z,3.13
2023-04-25T14:43:30.262Z,2.30
2023-04-25T14:45:58.585Z,4.40
2023-04-25T14:48:26.237Z,4.25
2023-04-25T14:50:53.877Z,3.58
2023-04-25T14:53:21.552Z,3.03
2023-04-25T14:55:49.768Z,4.05
2023-04-25T14:58:17.260Z,3.83
2023-04-25T15:00:45.231Z,4.05
2023-04-25T15:03:14.132Z,5.03
2023-04-25T15:05:41.936Z,4.55
2023-04-25T15:08:09.534Z,4.63
2023-04-25T15:10:37.127Z,4.38
2023-04-25T15:13:04.926Z,5.20
2023-04-25T15:15:32.110Z,4.28
2023-04-25T15:17:59.908Z,4.78
2023-04-25T15:20:28.604Z,4.57
2023-04-25T15:22:56.163Z,4.53
2023-04-25T15:25:23.789Z,5.35
2023-04-25T15:27:52.662Z,5.50
2023-04-25T15:30:20.696Z,4.85
2023-04-25T15:32:48.380Z,4.55
2023-04-25T15:35:16.489Z,3.97
2023-04-25T15:37:43.734Z,4.05
2023-04-25T15:40:14.624Z,4.60
2023-04-25T15:42:43.183Z,4.15
2023-04-25T15:45:12.151Z,3.78
2023-04-25T15:47:39.876Z,5.20
2023-04-25T15:50:09.456Z,4.65
2023-04-25T15:52:37.542Z,4.03
2023-04-25T15:55:06.444Z,4.68
2023-04-25T15:57:34.841Z,4.40
